DTH weather

Furnace Creek Airport
Death Valley National Park, California, United States

Public forecast

Using degrees Fahrenheit for public forecast. Weather courtesy of forecast.io.

Closest aviation weather report (METAR) to Furnace Creek Airport

Closest report is Desert Rock Airport, 42.0 nm (77.7 km) ENE. Retrieved 2019/10/23 19:53 UTC (9 minutes ago):

KDRA 231953Z AUTO 07006G17KT 10SM CLR 26/M03 A3011 RMK AO2 SLP162 T02561033

Closest aviation forecast (TAF) to Furnace Creek Airport

Forecast is more than 12 hours old.

Closest forecast is Desert Rock Airport, 42.0 nm (77.7 km) ENE. Retrieved 2011/12/07 06:36 UTC (8 years ago):

TAF KDRA 070532Z 0706/0806 VRB04KT P6SM SKC